createdAt,value
2023-04-18T00:00:57.227Z,101676.47
2023-04-18T00:03:23.787Z,101674.41
2023-04-18T00:05:50.566Z,101675.13
2023-04-18T00:08:17.017Z,101671.19
2023-04-18T00:10:43.434Z,101675.00
2023-04-18T00:13:10.186Z,101674.28
2023-04-18T00:15:36.794Z,101671.91
2023-04-18T00:18:03.762Z,101674.66
2023-04-18T00:20:30.637Z,101667.44
2023-04-18T00:22:57.077Z,101662.81
2023-04-18T00:25:23.624Z,101664.53
2023-04-18T00:27:50.037Z,101671.06
2023-04-18T00:30:16.517Z,101661.81
2023-04-18T00:32:43.068Z,101660.78
2023-04-18T00:35:09.736Z,101677.03
2023-04-18T00:37:37.192Z,101677.22
2023-04-18T00:40:05.495Z,101673.97
2023-04-18T00:42:31.930Z,101672.63
2023-04-18T00:44:58.375Z,101683.06
2023-04-18T00:47:25.180Z,101682.56
2023-04-18T00:49:51.861Z,101674.69
2023-04-18T00:52:19.005Z,101685.31
2023-04-18T00:54:46.660Z,101676.97
2023-04-18T00:57:13.381Z,101682.09
2023-04-18T00:59:40.615Z,101680.06
2023-04-18T01:02:07.146Z,101676.09
2023-04-18T01:04:33.687Z,101673.88
2023-04-18T01:07:02.149Z,101680.91
2023-04-18T01:09:29.059Z,101675.94
2023-04-18T01:11:55.552Z,101674.78
2023-04-18T01:14:22.350Z,101669.09
2023-04-18T01:16:49.002Z,101672.38
2023-04-18T01:19:17.313Z,101683.13
2023-04-18T01:21:44.107Z,101672.88
2023-04-18T01:24:12.614Z,101666.88
2023-04-18T01:26:40.473Z,101666.38
2023-04-18T01:29:07.190Z,101665.00
2023-04-18T01:31:36.038Z,101664.47
2023-04-18T01:34:03.541Z,101660.53
2023-04-18T01:36:30.653Z,101658.31
2023-04-18T01:38:57.127Z,101653.34
2023-04-18T01:41:23.552Z,101658.13
2023-04-18T01:43:49.937Z,101655.06
2023-04-18T01:46:16.887Z,101659.13
2023-04-18T01:48:43.336Z,101658.78
2023-04-18T01:51:09.749Z,101658.44
2023-04-18T01:53:36.168Z,101657.06
2023-04-18T01:56:02.576Z,101653.81
2023-04-18T01:58:28.996Z,101647.13
2023-04-18T02:00:58.880Z,101652.91
2023-04-18T02:03:25.765Z,101653.25
2023-04-18T02:05:52.673Z,101650.00
2023-04-18T02:08:19.134Z,101661.09
2023-04-18T02:10:45.868Z,101660.22
2023-04-18T02:13:12.416Z,101656.81
2023-04-18T02:15:38.853Z,101658.00
2023-04-18T02:18:05.593Z,101664.81
2023-04-18T02:20:33.465Z,101661.56
2023-04-18T02:23:01.057Z,101664.78
2023-04-18T02:25:28.848Z,101658.09
2023-04-18T02:27:57.027Z,101653.97
2023-04-18T02:30:25.054Z,101661.59
2023-04-18T02:32:52.473Z,101661.25
2023-04-18T02:35:20.394Z,101661.59
2023-04-18T02:37:46.826Z,101658.34
2023-04-18T02:40:13.410Z,101658.81
2023-04-18T02:42:39.921Z,101660.84
2023-04-18T02:45:07.396Z,101662.03
2023-04-18T02:47:43.511Z,101661.50
2023-04-18T02:50:18.022Z,101663.53
2023-04-18T02:52:44.451Z,101667.28
2023-04-18T02:55:10.983Z,101667.44
2023-04-18T02:57:37.512Z,101665.91
2023-04-18T03:00:06.447Z,101657.84
2023-04-18T03:02:33.049Z,101666.22
2023-04-18T03:04:59.703Z,101669.09
2023-04-18T03:07:26.405Z,101674.03
2023-04-18T03:09:52.938Z,101667.72
2023-04-18T03:12:19.418Z,101674.34
2023-04-18T03:14:45.881Z,101665.44
2023-04-18T03:17:12.448Z,101663.75
2023-04-18T03:19:38.906Z,101670.38
2023-04-18T03:22:06.013Z,101666.09
2023-04-18T03:24:32.391Z,101671.19
2023-04-18T03:27:00.505Z,101675.28
2023-04-18T03:29:26.903Z,101669.41
2023-04-18T03:31:53.348Z,101672.63
2023-04-18T03:34:19.841Z,101671.06
2023-04-18T03:36:47.959Z,101670.34
2023-04-18T03:39:14.788Z,101673.25
2023-04-18T03:41:41.220Z,101668.66
2023-04-18T03:44:07.647Z,101670.69
2023-04-18T03:46:34.078Z,101670.69
2023-04-18T03:49:00.916Z,101665.94
2023-04-18T03:51:27.612Z,101668.66
2023-04-18T03:53:54.191Z,101669.69
2023-04-18T03:56:20.856Z,101669.00
2023-04-18T03:58:47.312Z,101677.47
2023-04-18T04:01:13.801Z,101675.06
2023-04-18T04:03:40.403Z,101679.84
2023-04-18T04:06:07.114Z,101684.56
2023-04-18T04:08:33.897Z,101684.91
2023-04-18T04:11:00.418Z,101682.50
2023-04-18T04:13:26.879Z,101687.22
2023-04-18T04:15:53.412Z,101687.53
2023-04-18T04:18:20.205Z,101692.31
2023-04-18T04:20:47.613Z,101686.84
2023-04-18T04:23:13.969Z,101695.91
2023-04-18T04:25:40.484Z,101694.03
2023-04-18T04:28:08.236Z,101697.59
2023-04-18T04:30:34.700Z,101702.22
2023-04-18T04:33:01.742Z,101704.22
2023-04-18T04:35:28.460Z,101698.09
2023-04-18T04:37:54.854Z,101696.69
2023-04-18T04:40:22.919Z,101709.78
2023-04-18T04:42:53.973Z,101705.47
2023-04-18T04:45:20.442Z,101706.50
2023-04-18T04:47:47.374Z,101709.91
2023-04-18T04:50:15.630Z,101728.69
2023-04-18T04:52:42.874Z,101713.06
2023-04-18T04:55:10.630Z,101718.00
2023-04-18T04:57:37.678Z,101725.06
2023-04-18T05:00:08.213Z,101726.78
2023-04-18T05:02:34.981Z,101727.47
2023-04-18T05:05:01.660Z,101725.59
2023-04-18T05:07:28.602Z,101732.78
2023-04-18T05:09:55.122Z,101735.31
2023-04-18T05:12:21.575Z,101743.38
2023-04-18T05:14:47.997Z,101737.44
2023-04-18T05:17:14.446Z,101731.69
2023-04-18T05:19:40.854Z,101735.81
2023-04-18T05:22:07.236Z,101736.19
2023-04-18T05:24:33.622Z,101739.31
2023-04-18T05:27:00.254Z,101740.53
2023-04-18T05:29:26.704Z,101740.94
2023-04-18T05:31:53.171Z,101735.69
2023-04-18T05:34:19.603Z,101745.66
2023-04-18T05:36:47.751Z,101746.75
2023-04-18T05:39:14.158Z,101740.63
2023-04-18T05:41:40.723Z,101740.84
2023-04-18T05:44:07.149Z,101748.25
2023-04-18T05:46:33.719Z,101742.69
2023-04-18T05:49:00.261Z,101741.03
2023-04-18T05:51:28.593Z,101742.28
2023-04-18T05:53:55.193Z,101743.66
2023-04-18T05:56:21.643Z,101739.25
2023-04-18T05:58:48.189Z,101741.38
2023-04-18T06:01:14.653Z,101743.28
2023-04-18T06:03:41.717Z,101743.47
2023-04-18T06:06:08.478Z,101740.06
2023-04-18T06:08:34.889Z,101746.59
2023-04-18T06:11:01.505Z,101749.56
2023-04-18T06:13:27.955Z,101743.25
2023-04-18T06:15:54.528Z,101742.41
2023-04-18T06:18:21.339Z,101741.41
2023-04-18T06:20:47.776Z,101742.97
2023-04-18T06:23:14.255Z,101744.88
2023-04-18T06:25:43.897Z,101735.66
2023-04-18T06:28:10.330Z,101742.69
2023-04-18T06:30:37.165Z,101737.91
2023-04-18T06:33:03.765Z,101737.91
2023-04-18T06:35:31.426Z,101747.50
2023-04-18T06:37:57.845Z,101743.56
2023-04-18T06:40:24.247Z,101740.63
2023-04-18T06:42:50.681Z,101743.38
2023-04-18T06:45:17.273Z,101745.25
2023-04-18T06:47:43.888Z,101740.63
2023-04-18T06:50:10.760Z,101739.72
2023-04-18T06:52:44.256Z,101729.44
2023-04-18T06:55:12.191Z,101741.06
2023-04-18T06:57:40.754Z,101740.00
2023-04-18T07:00:07.808Z,101736.03
2023-04-18T07:02:36.287Z,101739.28
2023-04-18T07:05:03.219Z,101746.25
2023-04-18T07:07:29.656Z,101736.78
2023-04-18T07:09:56.136Z,101732.75
2023-04-18T07:12:22.749Z,101733.38
2023-04-18T07:14:49.165Z,101736.94
2023-04-18T07:17:15.913Z,101741.66
2023-04-18T07:19:42.439Z,101730.06
2023-04-18T07:22:09.113Z,101737.31
2023-04-18T07:24:36.130Z,101728.44
2023-04-18T07:27:03.275Z,101733.97
2023-04-18T07:29:29.751Z,101725.94
2023-04-18T07:31:56.173Z,101736.31
2023-04-18T07:34:22.818Z,101736.22
2023-04-18T07:36:49.293Z,101733.88
2023-04-18T07:39:15.789Z,101728.94
2023-04-18T07:41:42.301Z,101736.75
2023-04-18T07:44:08.791Z,101737.31
2023-04-18T07:46:35.379Z,101727.69
2023-04-18T07:49:04.765Z,101736.53
2023-04-18T07:51:31.761Z,101747.41
2023-04-18T07:53:59.378Z,101736.97
2023-04-18T07:56:26.588Z,101736.47
2023-04-18T07:58:53.243Z,101738.50
2023-04-18T08:01:23.388Z,101732.69
2023-04-18T08:03:51.024Z,101741.50
2023-04-18T08:06:17.749Z,101744.13
2023-04-18T08:08:44.559Z,101744.63
2023-04-18T08:11:10.993Z,101745.56
2023-04-18T08:13:37.412Z,101745.59
2023-04-18T08:16:03.989Z,101746.06
2023-04-18T08:18:30.483Z,101744.38
2023-04-18T08:20:57.027Z,101750.41
2023-04-18T08:23:23.513Z,101747.50
2023-04-18T08:25:49.902Z,101749.84
2023-04-18T08:28:16.316Z,101752.88
2023-04-18T08:30:43.924Z,101753.38
2023-04-18T08:33:10.680Z,101760.38
2023-04-18T08:35:37.095Z,101746.78
2023-04-18T08:38:03.536Z,101747.44
2023-04-18T08:40:30.272Z,101758.25
2023-04-18T08:42:58.598Z,101757.47
2023-04-18T08:45:26.131Z,101757.47
2023-04-18T08:47:53.446Z,101753.66
2023-04-18T08:50:20.015Z,101752.16
2023-04-18T08:52:49.557Z,101756.03
2023-04-18T08:55:16.468Z,101753.91
2023-04-18T08:57:43.772Z,101751.78
2023-04-18T09:00:11.799Z,101752.25
2023-04-18T09:02:44.835Z,101749.31
2023-04-18T09:05:13.336Z,101755.06
2023-04-18T09:07:40.575Z,101751.88
2023-04-18T09:10:07.856Z,101752.34
2023-04-18T09:12:50.243Z,101752.78
2023-04-18T09:15:20.200Z,101754.72
2023-04-18T09:17:56.213Z,101746.16
2023-04-18T09:20:49.889Z,101739.03
2023-04-18T09:23:24.481Z,101733.16
2023-04-18T09:25:52.295Z,101731.53
2023-04-18T09:28:23.430Z,101732.84
2023-04-18T09:30:53.396Z,101726.47
2023-04-18T09:33:34.049Z,101722.03
2023-04-18T09:36:18.951Z,101724.59
2023-04-18T09:38:45.619Z,101721.81
2023-04-18T09:41:13.085Z,101722.66
2023-04-18T09:43:39.546Z,101717.97
2023-04-18T09:46:07.770Z,101712.00
2023-04-18T09:48:34.372Z,101717.53
2023-04-18T09:51:06.308Z,101719.66
2023-04-18T09:53:38.195Z,101727.34
2023-04-18T09:56:07.153Z,101715.41
2023-04-18T09:58:37.581Z,101721.38
2023-04-18T10:01:04.909Z,101722.22
2023-04-18T10:03:35.180Z,101720.50
2023-04-18T10:06:01.877Z,101726.69
2023-04-18T10:08:28.483Z,101721.38
2023-04-18T10:10:56.593Z,101723.28
2023-04-18T10:13:24.063Z,101717.97
2023-04-18T10:15:52.437Z,101714.13
2023-04-18T10:18:23.222Z,101707.53
2023-04-18T10:20:49.869Z,101712.44
2023-04-18T10:23:43.052Z,101711.97
2023-04-18T10:26:10.687Z,101700.91
2023-04-18T10:28:58.748Z,101701.53
2023-04-18T10:31:27.359Z,101705.13
2023-04-18T10:34:05.146Z,101700.03
2023-04-18T10:36:33.031Z,101695.34
2023-04-18T10:39:03.795Z,101695.75
2023-04-18T10:41:34.292Z,101704.72
2023-04-18T10:44:09.770Z,101697.47
2023-04-18T10:46:41.014Z,101695.97
2023-04-18T10:49:15.178Z,101692.72
2023-04-18T10:51:45.914Z,101684.59
2023-04-18T10:54:37.457Z,101681.09
2023-04-18T10:57:05.322Z,101672.88
2023-04-18T10:59:34.161Z,101668.41
2023-04-18T11:02:30.267Z,101671.63
2023-04-18T11:04:59.395Z,101673.47
2023-04-18T11:07:37.226Z,101668.75
2023-04-18T11:10:05.578Z,101675.78
2023-04-18T11:12:34.685Z,101671.41
2023-04-18T11:15:11.217Z,101665.53
2023-04-18T11:17:40.180Z,101660.34
2023-04-18T11:20:13.597Z,101662.75
2023-04-18T11:22:52.246Z,101644.31
2023-04-18T11:25:23.600Z,101656.97
2023-04-18T11:27:51.607Z,101647.41
2023-04-18T11:30:18.253Z,101645.19
2023-04-18T11:32:44.821Z,101645.69
2023-04-18T11:35:12.795Z,101634.88
2023-04-18T11:37:40.680Z,101634.16
2023-04-18T11:40:10.161Z,101634.41
2023-04-18T11:42:38.976Z,101634.44
2023-04-18T11:45:13.659Z,101639.31
2023-04-18T11:47:42.593Z,101633.81
2023-04-18T11:50:11.370Z,101631.56
2023-04-18T11:52:39.452Z,101631.06
2023-04-18T11:55:24.633Z,101632.50
2023-04-18T11:57:55.920Z,101640.59
2023-04-18T12:00:31.698Z,101639.72
2023-04-18T12:02:59.310Z,101630.78
2023-04-18T12:05:27.380Z,101642.25
2023-04-18T12:07:54.181Z,101642.84
2023-04-18T12:10:20.831Z,101631.38
2023-04-18T12:12:48.652Z,101635.13
2023-04-18T12:15:16.754Z,101637.69
2023-04-18T12:17:51.829Z,101622.03
2023-04-18T12:20:18.457Z,101616.31
2023-04-18T12:22:50.126Z,101628.81
2023-04-18T12:25:22.832Z,101625.69
2023-04-18T12:27:54.534Z,101630.44
2023-04-18T12:30:22.989Z,101628.72
2023-04-18T12:32:51.407Z,101627.38
2023-04-18T12:35:22.045Z,101637.38
2023-04-18T12:37:50.103Z,101643.72
2023-04-18T12:40:18.957Z,101633.59
2023-04-18T12:42:46.544Z,101633.47
2023-04-18T12:45:14.001Z,101629.59
2023-04-18T12:47:41.657Z,101626.81
2023-04-18T12:50:17.655Z,101623.56
2023-04-18T12:52:44.946Z,101616.22
2023-04-18T12:55:12.184Z,101618.16
2023-04-18T12:57:39.036Z,101616.94
2023-04-18T13:00:13.330Z,101611.31
2023-04-18T13:02:42.346Z,101610.41
2023-04-18T13:05:11.682Z,101604.34
2023-04-18T13:07:40.510Z,101603.66
2023-04-18T13:10:08.901Z,101606.34
2023-04-18T13:12:35.563Z,101596.34
2023-04-18T13:15:02.177Z,101604.38
2023-04-18T13:17:28.684Z,101601.81
2023-04-18T13:19:55.266Z,101604.66
2023-04-18T13:22:22.094Z,101613.28
2023-04-18T13:24:48.697Z,101609.94
2023-04-18T13:27:15.313Z,101610.16
2023-04-18T13:29:45.677Z,101605.47
2023-04-18T13:32:12.616Z,101607.75
2023-04-18T13:34:42.373Z,101613.19
2023-04-18T13:37:09.219Z,101616.69
2023-04-18T13:39:35.764Z,101610.50
2023-04-18T13:42:03.246Z,101607.97
2023-04-18T13:44:30.889Z,101610.53
2023-04-18T13:46:57.821Z,101607.03
2023-04-18T13:49:24.384Z,101602.06
2023-04-18T13:51:53.415Z,101594.16
2023-04-18T13:54:20.194Z,101591.25
2023-04-18T13:56:46.653Z,101601.91
2023-04-18T13:59:13.549Z,101589.75
2023-04-18T14:01:40.331Z,101590.53
2023-04-18T14:04:07.110Z,101581.41
2023-04-18T14:06:33.606Z,101582.19
2023-04-18T14:09:00.046Z,101579.91
2023-04-18T14:11:26.665Z,101590.03
2023-04-18T14:13:53.131Z,101587.50
2023-04-18T14:16:19.638Z,101587.06
2023-04-18T14:18:46.298Z,101583.81
2023-04-18T14:21:12.731Z,101583.63
2023-04-18T14:23:39.153Z,101587.00
2023-04-18T14:26:05.616Z,101583.00
2023-04-18T14:28:32.082Z,101597.00
2023-04-18T14:31:01.931Z,101580.97
2023-04-18T14:33:29.025Z,101590.59
2023-04-18T14:35:55.428Z,101609.41
2023-04-18T14:38:21.845Z,101601.94
2023-04-18T14:40:48.283Z,101604.25
2023-04-18T14:43:14.747Z,101605.84
2023-04-18T14:45:41.183Z,101599.06
2023-04-18T14:48:08.824Z,101594.09
2023-04-18T14:50:38.493Z,101594.44
2023-04-18T14:53:05.850Z,101599.06
2023-04-18T14:55:33.680Z,101595.88
2023-04-18T14:58:00.803Z,101593.09
2023-04-18T15:00:27.564Z,101605.59
2023-04-18T15:02:54.627Z,101596.38
2023-04-18T15:05:23.737Z,101597.38
2023-04-18T15:07:51.750Z,101594.31
2023-04-18T15:10:19.213Z,101600.72
2023-04-18T15:12:46.812Z,101593.59
2023-04-18T15:15:13.723Z,101596.16
2023-04-18T15:17:40.475Z,101596.88
2023-04-18T15:20:07.940Z,101586.56
2023-04-18T15:22:35.390Z,101582.19
2023-04-18T15:25:02.124Z,101570.72
2023-04-18T15:27:28.540Z,101572.13
2023-04-18T15:29:55.096Z,101567.50
2023-04-18T15:32:22.003Z,101563.44
2023-04-18T15:34:48.886Z,101568.06
2023-04-18T15:37:15.329Z,101563.00
2023-04-18T15:39:41.755Z,101551.56
2023-04-18T15:42:08.196Z,101556.47
2023-04-18T15:44:34.689Z,101552.78
2023-04-18T15:47:01.864Z,101549.25
2023-04-18T15:49:28.453Z,101550.78
2023-04-18T15:51:56.595Z,101554.69
2023-04-18T15:54:23.030Z,101551.19
2023-04-18T15:56:49.566Z,101554.84
2023-04-18T15:59:16.023Z,101554.97
2023-04-18T16:01:45.213Z,101555.59
2023-04-18T16:04:12.839Z,101555.03
2023-04-18T16:06:40.192Z,101549.88
2023-04-18T16:09:06.890Z,101555.16
2023-04-18T16:11:33.288Z,101557.38
2023-04-18T16:13:59.717Z,101563.91
2023-04-18T16:16:28.329Z,101557.28
2023-04-18T16:18:54.919Z,101558.41
2023-04-18T16:21:21.421Z,101564.53
2023-04-18T16:23:48.707Z,101561.06
2023-04-18T16:26:15.239Z,101568.84
2023-04-18T16:28:42.073Z,101572.81
2023-04-18T16:31:08.761Z,101567.00
2023-04-18T16:33:35.371Z,101569.31
2023-04-18T16:36:05.034Z,101575.94
2023-04-18T16:38:31.761Z,101578.44
2023-04-18T16:41:00.481Z,101574.44
2023-04-18T16:43:28.242Z,101573.25
2023-04-18T16:45:57.464Z,101575.38
2023-04-18T16:48:24.797Z,101574.69
2023-04-18T16:50:51.586Z,101579.84
2023-04-18T16:53:17.969Z,101571.06
2023-04-18T16:55:44.434Z,101569.13
2023-04-18T16:58:11.225Z,101571.22
2023-04-18T17:00:38.541Z,101570.25
2023-04-18T17:03:07.251Z,101586.63
2023-04-18T17:05:33.828Z,101583.34
2023-04-18T17:08:00.377Z,101589.56
2023-04-18T17:10:29.266Z,101586.59
2023-04-18T17:12:55.967Z,101594.56
2023-04-18T17:15:22.544Z,101591.44
2023-04-18T17:17:50.223Z,101588.25
2023-04-18T17:20:17.901Z,101594.19
2023-04-18T17:22:44.375Z,101598.53
2023-04-18T17:25:11.067Z,101602.41
2023-04-18T17:27:39.995Z,101597.09
2023-04-18T17:30:07.569Z,101601.66
2023-04-18T17:32:34.006Z,101606.03
2023-04-18T17:35:04.151Z,101609.38
2023-04-18T17:37:31.105Z,101607.66
2023-04-18T17:39:58.739Z,101606.94
2023-04-18T17:42:25.382Z,101612.22
2023-04-18T17:44:51.837Z,101621.53
2023-04-18T17:47:18.409Z,101620.03
2023-04-18T17:49:46.018Z,101625.28
2023-04-18T17:52:12.425Z,101631.63
2023-04-18T17:54:38.901Z,101634.44
2023-04-18T17:57:05.303Z,101642.78
2023-04-18T17:59:37.481Z,101643.38
2023-04-18T18:02:05.159Z,101652.25
2023-04-18T18:04:31.771Z,101657.22
2023-04-18T18:06:58.726Z,101650.50
2023-04-18T18:09:25.363Z,101656.19
2023-04-18T18:11:53.481Z,101656.22
2023-04-18T18:14:21.820Z,101666.38
2023-04-18T18:16:48.533Z,101660.22
2023-04-18T18:19:15.445Z,101666.03
2023-04-18T18:21:42.531Z,101665.84
2023-04-18T18:24:09.501Z,101664.78
2023-04-18T18:26:36.204Z,101672.97
2023-04-18T18:29:09.140Z,101679.16
2023-04-18T18:31:36.193Z,101671.75
2023-04-18T18:34:02.982Z,101672.22
2023-04-18T18:36:29.631Z,101681.41
2023-04-18T18:38:56.065Z,101677.59
2023-04-18T18:41:22.959Z,101686.56
2023-04-18T18:43:50.608Z,101680.03
2023-04-18T18:46:17.285Z,101694.78
2023-04-18T18:48:44.663Z,101692.44
2023-04-18T18:51:11.577Z,101702.28
2023-04-18T18:53:40.214Z,101705.06
2023-04-18T18:56:08.678Z,101717.25
2023-04-18T18:58:35.602Z,101709.34
2023-04-18T19:01:03.306Z,101709.78
2023-04-18T19:03:30.324Z,101717.47
2023-04-18T19:05:56.873Z,101710.63
2023-04-18T19:08:23.303Z,101709.38
2023-04-18T19:10:50.587Z,101710.25
2023-04-18T19:13:21.205Z,101714.94
2023-04-18T19:15:47.655Z,101731.13
2023-04-18T19:18:15.044Z,101731.56
2023-04-18T19:20:41.762Z,101730.31
2023-04-18T19:23:08.186Z,101726.25
2023-04-18T19:25:34.665Z,101733.72
2023-04-18T19:28:01.084Z,101738.19
2023-04-18T19:30:27.553Z,101730.50
2023-04-18T19:32:54.107Z,101731.38
2023-04-18T19:35:20.624Z,101733.06
2023-04-18T19:37:47.053Z,101736.47
2023-04-18T19:40:14.131Z,101744.78
2023-04-18T19:42:41.005Z,101742.19
2023-04-18T19:45:07.814Z,101733.69
2023-04-18T19:47:34.409Z,101740.28
2023-04-18T19:50:01.259Z,101739.88
2023-04-18T19:52:27.706Z,101734.97
2023-04-18T19:54:54.889Z,101735.19
2023-04-18T19:57:21.672Z,101734.09
2023-04-18T19:59:48.125Z,101737.50
2023-04-18T20:02:14.602Z,101737.06
2023-04-18T20:04:41.777Z,101742.63
2023-04-18T20:07:08.359Z,101736.47
2023-04-18T20:09:34.775Z,101737.50
2023-04-18T20:12:02.597Z,101735.81
2023-04-18T20:14:29.598Z,101734.09
2023-04-18T20:16:56.555Z,101733.22
2023-04-18T20:19:26.756Z,101736.25
2023-04-18T20:21:53.262Z,101740.06
2023-04-18T20:24:21.169Z,101740.50
2023-04-18T20:26:47.916Z,101748.19
2023-04-18T20:29:14.570Z,101739.22
2023-04-18T20:31:42.426Z,101735.84
2023-04-18T20:34:09.852Z,101740.53
2023-04-18T20:36:41.376Z,101744.16
2023-04-18T20:39:12.456Z,101741.78
2023-04-18T20:41:46.386Z,101739.00
2023-04-18T20:44:13.745Z,101746.06
2023-04-18T20:46:40.997Z,101735.81
2023-04-18T20:49:08.461Z,101741.38
2023-04-18T20:51:36.935Z,101757.16
2023-04-18T20:54:04.367Z,101744.56
2023-04-18T20:56:31.935Z,101757.34
2023-04-18T20:58:58.301Z,101746.28
2023-04-18T21:01:24.865Z,101759.91
2023-04-18T21:03:51.496Z,101762.47
2023-04-18T21:06:19.128Z,101755.03
2023-04-18T21:08:45.815Z,101759.47
2023-04-18T21:11:12.218Z,101761.41
2023-04-18T21:13:38.710Z,101769.50
2023-04-18T21:16:07.920Z,101771.41
2023-04-18T21:18:34.483Z,101769.94
2023-04-18T21:21:00.929Z,101766.09
2023-04-18T21:23:27.539Z,101772.47
2023-04-18T21:25:53.970Z,101765.25
2023-04-18T21:28:20.536Z,101767.78
2023-04-18T21:30:47.120Z,101772.91
2023-04-18T21:33:14.168Z,101768.22
2023-04-18T21:35:40.588Z,101769.94
2023-04-18T21:38:07.318Z,101765.25
2023-04-18T21:40:33.738Z,101772.88
2023-04-18T21:43:00.338Z,101778.44
2023-04-18T21:45:26.913Z,101777.19
2023-04-18T21:47:53.434Z,101772.03
2023-04-18T21:50:20.275Z,101766.94
2023-04-18T21:52:46.703Z,101766.09
2023-04-18T21:55:13.143Z,101771.63
2023-04-18T21:57:39.551Z,101767.38
2023-04-18T22:00:09.200Z,101768.00
2023-04-18T22:02:36.807Z,101760.78
2023-04-18T22:05:03.394Z,101770.75
2023-04-18T22:07:30.995Z,101761.00
2023-04-18T22:09:59.636Z,101766.53
2023-04-18T22:12:26.478Z,101763.09
2023-04-18T22:14:53.106Z,101763.75
2023-04-18T22:17:21.930Z,101761.00
2023-04-18T22:19:49.772Z,101760.56
2023-04-18T22:22:16.528Z,101764.81
2023-04-18T22:24:43.986Z,101763.31
2023-04-18T22:27:11.412Z,101764.16
2023-04-18T22:29:37.835Z,101761.81
2023-04-18T22:32:04.429Z,101757.34
2023-04-18T22:34:30.911Z,101760.13
2023-04-18T22:36:57.350Z,101760.13
2023-04-18T22:39:24.687Z,101764.34
2023-04-18T22:41:51.172Z,101757.78
2023-04-18T22:44:17.786Z,101763.09
2023-04-18T22:46:44.630Z,101760.13
2023-04-18T22:49:11.277Z,101761.81
2023-04-18T22:51:38.155Z,101758.00
2023-04-18T22:54:04.850Z,101758.00
2023-04-18T22:56:31.306Z,101763.72
2023-04-18T22:58:57.711Z,101762.88
2023-04-18T23:01:24.175Z,101763.97
2023-04-18T23:03:50.766Z,101758.81
2023-04-18T23:06:17.482Z,101760.97
2023-04-18T23:08:43.897Z,101760.09
2023-04-18T23:11:11.168Z,101769.47
2023-04-18T23:13:37.691Z,101767.34
2023-04-18T23:16:04.473Z,101765.88
2023-04-18T23:18:30.952Z,101763.09
2023-04-18T23:20:57.379Z,101760.97
2023-04-18T23:23:24.024Z,101764.78
2023-04-18T23:25:50.414Z,101769.25
2023-04-18T23:28:17.116Z,101763.53
2023-04-18T23:30:43.736Z,101765.44
2023-04-18T23:33:10.233Z,101767.56
2023-04-18T23:35:36.897Z,101764.78
2023-04-18T23:38:03.539Z,101767.56
2023-04-18T23:40:30.016Z,101769.03
2023-04-18T23:42:57.094Z,101761.81
2023-04-18T23:45:24.345Z,101762.69
2023-04-18T23:47:51.183Z,101765.22
2023-04-18T23:50:17.772Z,101759.25
2023-04-18T23:52:44.204Z,101765.41
2023-04-18T23:55:10.752Z,101772.66
2023-04-18T23:57:37.385Z,101766.06
